createdAt,value
2023-04-16T00:01:51.728Z,27.88
2023-04-16T00:04:19.642Z,24.85
2023-04-16T00:06:47.256Z,22.85
2023-04-16T00:09:14.823Z,22.27
2023-04-16T00:11:42.326Z,19.45
2023-04-16T00:14:09.834Z,21.25
2023-04-16T00:16:38.466Z,17.63
2023-04-16T00:19:06.187Z,19.88
2023-04-16T00:21:33.802Z,21.95
2023-04-16T00:24:01.355Z,25.00
2023-04-16T00:26:28.864Z,17.90
2023-04-16T00:28:56.543Z,23.80
2023-04-16T00:31:31.951Z,19.48
2023-04-16T00:34:00.387Z,21.80
2023-04-16T00:36:28.691Z,21.63
2023-04-16T00:38:57.176Z,26.90
2023-04-16T00:41:24.704Z,23.50
2023-04-16T00:43:52.370Z,24.63
2023-04-16T00:46:22.082Z,25.98
2023-04-16T00:48:51.593Z,28.35
2023-04-16T00:51:20.574Z,31.30
2023-04-16T00:53:48.419Z,30.10
2023-04-16T00:56:17.615Z,31.58
2023-04-16T00:58:45.557Z,33.97
2023-04-16T01:01:14.567Z,31.63
2023-04-16T01:03:47.424Z,34.63
2023-04-16T01:06:16.709Z,33.65
2023-04-16T01:08:44.871Z,31.60
2023-04-16T01:11:14.013Z,35.05
2023-04-16T01:13:42.102Z,35.53
2023-04-16T01:16:11.290Z,36.03
2023-04-16T01:18:39.129Z,31.38
2023-04-16T01:21:07.060Z,29.58
2023-04-16T01:23:34.561Z,26.75
2023-04-16T01:26:03.265Z,27.05
2023-04-16T01:28:31.011Z,26.92
2023-04-16T01:30:58.613Z,24.63
2023-04-16T01:33:49.197Z,24.15
2023-04-16T01:36:16.784Z,26.23
2023-04-16T01:38:46.342Z,28.30
2023-04-16T01:41:13.917Z,30.65
2023-04-16T01:43:42.565Z,32.38
2023-04-16T01:46:18.088Z,28.75
2023-04-16T01:48:45.824Z,25.35
2023-04-16T01:51:13.516Z,27.20
2023-04-16T01:53:41.141Z,27.73
2023-04-16T01:56:08.796Z,28.38
2023-04-16T01:58:36.600Z,27.90
2023-04-16T02:01:05.846Z,25.45
2023-04-16T02:03:34.068Z,25.50
2023-04-16T02:06:01.793Z,23.83
2023-04-16T02:08:29.738Z,23.17
2023-04-16T02:10:57.953Z,23.52
2023-04-16T02:13:26.413Z,28.08
2023-04-16T02:15:54.263Z,23.45
2023-04-16T02:18:32.608Z,20.02
2023-04-16T02:21:00.557Z,21.63
2023-04-16T02:23:28.409Z,20.45
2023-04-16T02:25:58.538Z,24.33
2023-04-16T02:28:26.471Z,16.95
2023-04-16T02:30:54.399Z,16.23
2023-04-16T02:33:22.657Z,18.83
2023-04-16T02:35:57.462Z,17.83
2023-04-16T02:38:25.687Z,18.25
2023-04-16T02:40:53.130Z,16.38
2023-04-16T02:43:20.685Z,16.00
2023-04-16T02:45:48.325Z,16.63
2023-04-16T02:48:16.025Z,19.95
2023-04-16T02:50:43.664Z,19.27
2023-04-16T02:53:11.599Z,19.10
2023-04-16T02:55:39.196Z,21.88
2023-04-16T02:58:06.851Z,25.10
2023-04-16T03:00:34.406Z,23.50
2023-04-16T03:03:02.171Z,26.90
2023-04-16T03:05:30.025Z,24.80
2023-04-16T03:07:57.574Z,22.08
2023-04-16T03:10:25.081Z,21.77
2023-04-16T03:12:52.604Z,24.23
2023-04-16T03:15:20.345Z,22.77
2023-04-16T03:17:47.915Z,26.77
2023-04-16T03:20:17.070Z,23.67
2023-04-16T03:22:44.747Z,24.48
2023-04-16T03:25:13.965Z,23.45
2023-04-16T03:27:41.722Z,26.65
2023-04-16T03:30:14.027Z,23.05
2023-04-16T03:32:42.018Z,26.42
2023-04-16T03:35:10.946Z,26.88
2023-04-16T03:37:38.536Z,30.10
2023-04-16T03:40:07.216Z,24.60
2023-04-16T03:42:35.172Z,26.27
2023-04-16T03:45:03.972Z,26.52
2023-04-16T03:47:32.740Z,24.23
2023-04-16T03:50:03.314Z,25.08
2023-04-16T03:52:31.467Z,28.27
2023-04-16T03:54:59.075Z,28.73
2023-04-16T03:57:28.906Z,29.20
2023-04-16T04:00:02.035Z,29.02
2023-04-16T04:02:42.006Z,28.13
2023-04-16T04:05:16.995Z,30.42
2023-04-16T04:07:46.036Z,27.02
2023-04-16T04:10:15.680Z,26.80
2023-04-16T04:12:44.281Z,27.08
2023-04-16T04:15:12.291Z,24.75
2023-04-16T04:17:39.893Z,24.90
2023-04-16T04:20:07.902Z,27.13
2023-04-16T04:22:37.270Z,25.38
2023-04-16T04:25:05.069Z,25.05
2023-04-16T04:27:33.739Z,27.88
2023-04-16T04:30:01.481Z,28.05
2023-04-16T04:32:29.729Z,30.65
2023-04-16T04:34:57.640Z,28.20
2023-04-16T04:37:25.197Z,29.17
2023-04-16T04:39:52.818Z,30.95
2023-04-16T04:42:21.478Z,27.95
2023-04-16T04:44:49.329Z,28.17
2023-04-16T04:47:17.004Z,31.10
2023-04-16T04:49:44.526Z,29.73
2023-04-16T04:52:12.200Z,30.27
2023-04-16T04:54:41.728Z,30.10
2023-04-16T04:57:09.390Z,29.95
2023-04-16T04:59:37.058Z,28.58
2023-04-16T05:02:04.912Z,34.28
2023-04-16T05:04:32.614Z,31.67
2023-04-16T05:07:00.268Z,30.40
2023-04-16T05:09:27.803Z,31.27
2023-04-16T05:11:55.337Z,28.25
2023-04-16T05:14:23.025Z,29.58
2023-04-16T05:16:50.692Z,32.22
2023-04-16T05:19:18.211Z,34.63
2023-04-16T05:21:45.741Z,32.70
2023-04-16T05:24:14.981Z,34.10
2023-04-16T05:26:42.716Z,29.77
2023-04-16T05:29:10.666Z,34.10
2023-04-16T05:31:38.748Z,32.63
2023-04-16T05:34:06.275Z,32.88
2023-04-16T05:36:33.875Z,32.83
2023-04-16T05:39:01.352Z,29.35
2023-04-16T05:41:28.989Z,32.25
2023-04-16T05:43:56.539Z,30.23
2023-04-16T05:46:24.092Z,33.70
2023-04-16T05:48:51.919Z,31.25
2023-04-16T05:51:20.099Z,34.53
2023-04-16T05:53:47.598Z,29.30
2023-04-16T05:56:15.415Z,33.05
2023-04-16T05:58:42.929Z,31.83
2023-04-16T06:01:11.304Z,30.77
2023-04-16T06:03:39.014Z,32.78
2023-04-16T06:06:08.859Z,29.02
2023-04-16T06:08:36.399Z,31.27
2023-04-16T06:11:04.165Z,32.45
2023-04-16T06:13:31.794Z,34.78
2023-04-16T06:15:59.356Z,29.40
2023-04-16T06:18:26.904Z,29.42
2023-04-16T06:20:54.631Z,30.42
2023-04-16T06:23:23.308Z,31.42
2023-04-16T06:25:51.071Z,28.65
2023-04-16T06:28:18.684Z,21.92
2023-04-16T06:30:47.282Z,19.77
2023-04-16T06:33:14.897Z,17.05
2023-04-16T06:35:42.577Z,13.95
2023-04-16T06:38:10.146Z,12.77
2023-04-16T06:40:37.737Z,13.50
2023-04-16T06:43:05.986Z,17.85
2023-04-16T06:45:33.625Z,15.82
2023-04-16T06:48:01.612Z,18.25
2023-04-16T06:50:29.416Z,12.35
2023-04-16T06:52:57.402Z,11.27
2023-04-16T06:55:24.889Z,8.50
2023-04-16T06:57:52.594Z,8.65
2023-04-16T07:00:20.167Z,8.02
2023-04-16T07:02:48.381Z,7.68
2023-04-16T07:05:16.375Z,8.07
2023-04-16T07:07:43.978Z,6.97
2023-04-16T07:10:11.638Z,6.03
2023-04-16T07:12:39.460Z,7.57
2023-04-16T07:15:07.727Z,9.65
2023-04-16T07:17:35.296Z,7.82
2023-04-16T07:20:02.871Z,7.93
2023-04-16T07:22:30.614Z,6.60
2023-04-16T07:24:58.127Z,8.95
2023-04-16T07:27:25.823Z,9.13
2023-04-16T07:29:54.788Z,8.20
2023-04-16T07:32:22.761Z,6.95
2023-04-16T07:34:50.547Z,7.40
2023-04-16T07:37:18.048Z,5.50
2023-04-16T07:39:45.870Z,7.40
2023-04-16T07:42:14.108Z,7.07
2023-04-16T07:44:41.755Z,7.78
2023-04-16T07:47:09.263Z,6.57
2023-04-16T07:49:36.860Z,6.00
2023-04-16T07:52:04.376Z,5.55
2023-04-16T07:54:32.092Z,4.85
2023-04-16T07:56:59.707Z,8.63
2023-04-16T07:59:27.799Z,4.45
2023-04-16T08:01:55.528Z,3.17
2023-04-16T08:04:25.667Z,4.50
2023-04-16T08:06:54.382Z,3.55
2023-04-16T08:09:23.886Z,3.38
2023-04-16T08:11:51.579Z,6.55
2023-04-16T08:14:19.206Z,5.57
2023-04-16T08:16:47.194Z,3.70
2023-04-16T08:19:14.729Z,4.65
2023-04-16T08:21:42.370Z,7.30
2023-04-16T08:24:10.015Z,6.57
2023-04-16T08:26:37.694Z,3.63
2023-04-16T08:29:05.330Z,5.10
2023-04-16T08:31:33.268Z,5.25
2023-04-16T08:34:01.467Z,3.05
2023-04-16T08:36:29.597Z,7.18
2023-04-16T08:38:57.142Z,7.50
2023-04-16T08:41:26.741Z,5.15
2023-04-16T08:43:56.849Z,3.78
2023-04-16T08:46:26.795Z,5.38
2023-04-16T08:48:57.850Z,6.32
2023-04-16T08:51:29.541Z,5.70
2023-04-16T08:54:03.364Z,5.78
2023-04-16T08:56:36.802Z,4.03
2023-04-16T08:59:07.419Z,5.07
2023-04-16T09:01:40.055Z,6.10
2023-04-16T09:04:09.800Z,8.68
2023-04-16T09:06:39.213Z,4.68
2023-04-16T09:09:09.014Z,7.05
2023-04-16T09:11:39.003Z,4.22
2023-04-16T09:14:09.832Z,4.47
2023-04-16T09:16:37.670Z,4.63
2023-04-16T09:19:05.460Z,3.30
2023-04-16T09:21:33.044Z,6.32
2023-04-16T09:24:01.694Z,5.57
2023-04-16T09:26:29.704Z,7.30
2023-04-16T09:28:57.200Z,6.63
2023-04-16T09:31:24.748Z,4.68
2023-04-16T09:34:07.464Z,6.53
2023-04-16T09:36:36.237Z,4.85
2023-04-16T09:39:04.189Z,7.38
2023-04-16T09:41:36.086Z,5.60
2023-04-16T09:44:05.351Z,4.97
2023-04-16T09:46:45.751Z,6.10
2023-04-16T09:49:18.611Z,5.75
2023-04-16T09:51:49.756Z,5.78
2023-04-16T09:54:17.311Z,5.70
2023-04-16T09:56:46.838Z,3.70
2023-04-16T09:59:21.768Z,4.82
2023-04-16T10:01:53.266Z,3.70
2023-04-16T10:04:26.014Z,6.97
2023-04-16T10:07:05.070Z,5.18
2023-04-16T10:09:40.592Z,4.20
2023-04-16T10:12:08.493Z,5.75
2023-04-16T10:14:36.454Z,9.20
2023-04-16T10:17:06.257Z,4.07
2023-04-16T10:19:35.107Z,6.18
2023-04-16T10:22:03.394Z,4.47
2023-04-16T10:24:33.880Z,6.68
2023-04-16T10:27:01.785Z,4.40
2023-04-16T10:29:30.947Z,4.45
2023-04-16T10:31:59.621Z,5.75
2023-04-16T10:34:28.892Z,5.18
2023-04-16T10:36:56.471Z,4.78
2023-04-16T10:39:27.176Z,4.82
2023-04-16T10:42:09.487Z,4.80
2023-04-16T10:44:37.594Z,6.63
2023-04-16T10:47:11.948Z,6.68
2023-04-16T10:49:40.799Z,6.03
2023-04-16T10:52:10.060Z,6.75
2023-04-16T10:54:37.996Z,4.50
2023-04-16T10:57:07.568Z,4.97
2023-04-16T10:59:36.984Z,5.15
2023-04-16T11:02:09.852Z,5.47
2023-04-16T11:04:39.581Z,6.53
2023-04-16T11:07:14.686Z,6.30
2023-04-16T11:09:54.325Z,8.57
2023-04-16T11:12:23.466Z,5.57
2023-04-16T11:14:54.490Z,4.78
2023-04-16T11:17:22.476Z,7.40
2023-04-16T11:19:50.932Z,5.70
2023-04-16T11:22:21.334Z,6.28
2023-04-16T11:24:55.432Z,8.15
2023-04-16T11:27:26.416Z,8.23
2023-04-16T11:30:02.393Z,7.82
2023-04-16T11:32:38.193Z,8.55
2023-04-16T11:35:15.838Z,5.00
2023-04-16T11:37:43.612Z,4.85
2023-04-16T11:40:11.491Z,5.63
2023-04-16T11:42:41.398Z,6.40
2023-04-16T11:45:11.047Z,6.85
2023-04-16T11:47:55.493Z,8.85
2023-04-16T11:50:28.295Z,7.15
2023-04-16T11:52:57.703Z,7.20
2023-04-16T11:55:25.492Z,9.50
2023-04-16T11:57:53.085Z,4.97
2023-04-16T12:00:23.968Z,5.80
2023-04-16T12:02:54.947Z,7.90
2023-04-16T12:05:38.680Z,6.35
2023-04-16T12:08:08.212Z,7.20
2023-04-16T12:10:55.998Z,6.72
2023-04-16T12:13:23.571Z,9.43
2023-04-16T12:15:52.699Z,6.63
2023-04-16T12:18:23.014Z,7.70
2023-04-16T12:20:53.585Z,6.13
2023-04-16T12:23:25.132Z,7.28
2023-04-16T12:25:53.259Z,6.97
2023-04-16T12:28:47.238Z,9.80
2023-04-16T12:31:15.802Z,8.85
2023-04-16T12:33:43.438Z,8.45
2023-04-16T12:36:20.890Z,8.05
2023-04-16T12:38:48.491Z,7.15
2023-04-16T12:41:15.952Z,8.02
2023-04-16T12:43:43.522Z,7.35
2023-04-16T12:46:11.115Z,9.32
2023-04-16T12:48:38.648Z,8.32
2023-04-16T12:51:06.546Z,8.85
2023-04-16T12:53:34.619Z,11.20
2023-04-16T12:56:02.327Z,9.23
2023-04-16T12:58:29.820Z,8.52
2023-04-16T13:00:57.519Z,6.10
2023-04-16T13:03:25.233Z,11.82
2023-04-16T13:05:52.926Z,7.72
2023-04-16T13:08:20.687Z,6.90
2023-04-16T13:10:48.258Z,7.13
2023-04-16T13:13:16.546Z,7.75
2023-04-16T13:15:44.154Z,9.15
2023-04-16T13:18:11.672Z,8.95
2023-04-16T13:20:39.353Z,6.15
2023-04-16T13:23:07.413Z,8.18
2023-04-16T13:25:35.443Z,8.48
2023-04-16T13:28:03.055Z,7.40
2023-04-16T13:30:31.738Z,8.60
2023-04-16T13:32:59.539Z,10.32
2023-04-16T13:35:27.477Z,7.85
2023-04-16T13:37:55.264Z,9.85
2023-04-16T13:40:22.836Z,9.02
2023-04-16T13:42:50.431Z,12.20
2023-04-16T13:45:19.038Z,9.48
2023-04-16T13:47:46.931Z,9.80
2023-04-16T13:50:14.529Z,8.00
2023-04-16T13:52:42.080Z,10.35
2023-04-16T13:55:09.960Z,8.40
2023-04-16T13:57:37.543Z,8.27
2023-04-16T14:00:05.609Z,9.10
2023-04-16T14:02:33.313Z,10.57
2023-04-16T14:05:01.082Z,9.95
2023-04-16T14:07:29.227Z,9.57
2023-04-16T14:09:56.716Z,12.60
2023-04-16T14:12:24.406Z,10.70
2023-04-16T14:14:51.919Z,8.65
2023-04-16T14:17:19.560Z,9.65
2023-04-16T14:19:47.196Z,11.57
2023-04-16T14:22:17.757Z,11.48
2023-04-16T14:24:46.499Z,9.85
2023-04-16T14:27:14.169Z,14.63
2023-04-16T14:29:41.712Z,9.13
2023-04-16T14:32:09.317Z,10.05
2023-04-16T14:34:37.063Z,12.27
2023-04-16T14:37:05.678Z,10.50
2023-04-16T14:39:33.173Z,8.63
2023-04-16T14:42:00.745Z,9.20
2023-04-16T14:44:28.235Z,9.30
2023-04-16T14:46:55.878Z,12.85
2023-04-16T14:49:23.459Z,11.05
2023-04-16T14:51:52.328Z,9.68
2023-04-16T14:54:20.547Z,10.82
2023-04-16T14:56:48.193Z,12.70
2023-04-16T14:59:15.771Z,7.82
2023-04-16T15:01:43.437Z,10.43
2023-04-16T15:04:11.358Z,10.63
2023-04-16T15:06:39.284Z,11.20
2023-04-16T15:09:08.160Z,8.18
2023-04-16T15:11:35.874Z,9.75
2023-04-16T15:14:03.377Z,8.00
2023-04-16T15:16:31.036Z,7.22
2023-04-16T15:18:59.172Z,17.30
2023-04-16T15:21:27.967Z,6.90
2023-04-16T15:23:55.472Z,9.27
2023-04-16T15:26:23.193Z,11.00
2023-04-16T15:28:50.663Z,10.32
2023-04-16T15:31:20.765Z,10.63
2023-04-16T15:33:49.148Z,9.35
2023-04-16T15:36:16.645Z,9.98
2023-04-16T15:38:44.122Z,8.18
2023-04-16T15:41:11.796Z,8.60
2023-04-16T15:43:39.339Z,11.48
2023-04-16T15:46:08.744Z,8.25
2023-04-16T15:48:36.417Z,11.52
2023-04-16T15:51:04.118Z,10.88
2023-04-16T15:53:31.689Z,12.18
2023-04-16T15:55:59.952Z,8.55
2023-04-16T15:58:27.551Z,12.55
2023-04-16T16:00:55.101Z,7.13
2023-04-16T16:03:22.787Z,12.18
2023-04-16T16:05:50.669Z,10.88
2023-04-16T16:08:18.528Z,11.13
2023-04-16T16:10:46.780Z,9.10
2023-04-16T16:13:18.026Z,10.20
2023-04-16T16:15:45.633Z,16.55
2023-04-16T16:18:13.180Z,8.95
2023-04-16T16:20:41.032Z,13.15
2023-04-16T16:23:08.624Z,10.98
2023-04-16T16:25:36.278Z,10.15
2023-04-16T16:28:06.654Z,10.95
2023-04-16T16:30:34.507Z,12.85
2023-04-16T16:33:02.164Z,14.68
2023-04-16T16:35:29.832Z,9.57
2023-04-16T16:37:58.658Z,8.68
2023-04-16T16:40:26.173Z,10.50
2023-04-16T16:42:53.732Z,12.85
2023-04-16T16:45:21.455Z,12.77
2023-04-16T16:47:49.124Z,11.35
2023-04-16T16:50:16.939Z,8.70
2023-04-16T16:52:44.849Z,15.77
2023-04-16T16:55:12.402Z,12.63
2023-04-16T16:57:39.991Z,17.02
2023-04-16T17:00:14.881Z,13.05
2023-04-16T17:02:43.082Z,14.07
2023-04-16T17:05:11.005Z,11.27
2023-04-16T17:07:39.119Z,10.13
2023-04-16T17:10:07.378Z,10.48
2023-04-16T17:12:35.713Z,11.85
2023-04-16T17:15:03.830Z,9.50
2023-04-16T17:17:32.581Z,7.47
2023-04-16T17:20:01.152Z,10.15
2023-04-16T17:22:28.801Z,10.82
2023-04-16T17:24:57.139Z,9.32
2023-04-16T17:27:24.731Z,9.38
2023-04-16T17:29:53.191Z,7.65
2023-04-16T17:32:20.923Z,12.75
2023-04-16T17:34:48.489Z,9.82
2023-04-16T17:37:16.036Z,12.60
2023-04-16T17:39:43.608Z,9.10
2023-04-16T17:42:11.142Z,7.15
2023-04-16T17:44:38.646Z,9.95
2023-04-16T17:47:06.309Z,15.18
2023-04-16T17:49:33.812Z,8.35
2023-04-16T17:52:01.331Z,8.95
2023-04-16T17:54:28.855Z,9.38
2023-04-16T17:56:57.631Z,10.70
2023-04-16T17:59:25.367Z,11.82
2023-04-16T18:01:53.031Z,9.95
2023-04-16T18:04:20.739Z,9.52
2023-04-16T18:06:48.560Z,13.55
2023-04-16T18:09:16.182Z,10.40
2023-04-16T18:11:43.960Z,9.25
2023-04-16T18:14:14.087Z,10.88
2023-04-16T18:16:42.086Z,11.95
2023-04-16T18:19:09.624Z,8.10
2023-04-16T18:21:37.195Z,12.93
2023-04-16T18:24:05.381Z,11.95
2023-04-16T18:26:35.692Z,12.27
2023-04-16T18:29:04.151Z,11.95
2023-04-16T18:31:32.000Z,22.80
2023-04-16T18:33:59.756Z,11.38
2023-04-16T18:36:27.559Z,15.75
2023-04-16T18:39:02.142Z,8.50
2023-04-16T18:41:31.151Z,11.07
2023-04-16T18:43:58.760Z,11.60
2023-04-16T18:46:27.541Z,10.40
2023-04-16T18:48:55.505Z,10.43
2023-04-16T18:51:23.327Z,8.98
2023-04-16T18:53:51.322Z,7.35
2023-04-16T18:56:18.975Z,15.65
2023-04-16T18:58:47.833Z,10.35
2023-04-16T19:01:16.696Z,8.40
2023-04-16T19:03:44.421Z,10.82
2023-04-16T19:06:12.078Z,8.43
2023-04-16T19:08:39.694Z,11.63
2023-04-16T19:11:07.501Z,8.40
2023-04-16T19:13:35.390Z,11.48
2023-04-16T19:16:04.939Z,14.25
2023-04-16T19:18:32.768Z,8.73
2023-04-16T19:21:01.401Z,10.70
2023-04-16T19:23:29.420Z,11.77
2023-04-16T19:25:57.324Z,9.68
2023-04-16T19:28:25.484Z,9.90
2023-04-16T19:30:53.858Z,7.38
2023-04-16T19:33:21.542Z,9.77
2023-04-16T19:35:49.266Z,9.57
2023-04-16T19:38:16.847Z,9.07
2023-04-16T19:40:46.670Z,12.18
2023-04-16T19:43:15.006Z,11.80
2023-04-16T19:45:46.856Z,8.10
2023-04-16T19:48:14.977Z,9.20
2023-04-16T19:50:43.005Z,9.18
2023-04-16T19:53:11.649Z,7.43
2023-04-16T19:55:40.285Z,11.98
2023-04-16T19:58:08.950Z,8.98
2023-04-16T20:00:38.070Z,10.00
2023-04-16T20:03:06.531Z,8.60
2023-04-16T20:05:34.224Z,8.93
2023-04-16T20:08:01.839Z,8.05
2023-04-16T20:10:31.534Z,8.98
2023-04-16T20:12:59.480Z,14.43
2023-04-16T20:15:27.383Z,10.15
2023-04-16T20:17:56.293Z,10.73
2023-04-16T20:20:24.299Z,9.95
2023-04-16T20:22:51.974Z,9.52
2023-04-16T20:25:19.774Z,7.53
2023-04-16T20:27:47.888Z,8.40
2023-04-16T20:30:15.686Z,9.43
2023-04-16T20:32:43.544Z,7.88
2023-04-16T20:35:11.643Z,7.45
2023-04-16T20:37:42.009Z,7.93
2023-04-16T20:40:10.740Z,8.73
2023-04-16T20:42:38.432Z,10.82
2023-04-16T20:45:07.261Z,7.50
2023-04-16T20:47:35.015Z,8.70
2023-04-16T20:50:03.734Z,10.68
2023-04-16T20:52:31.308Z,11.43
2023-04-16T20:54:58.811Z,9.38
2023-04-16T20:57:32.064Z,7.47
2023-04-16T20:59:59.776Z,6.05
2023-04-16T21:02:28.377Z,6.80
2023-04-16T21:04:56.208Z,9.63
2023-04-16T21:07:23.769Z,10.18
2023-04-16T21:09:51.257Z,9.63
2023-04-16T21:12:19.158Z,9.68
2023-04-16T21:14:46.727Z,11.55
2023-04-16T21:17:14.328Z,11.70
2023-04-16T21:19:41.841Z,12.00
2023-04-16T21:22:09.535Z,11.73
2023-04-16T21:24:37.068Z,7.93
2023-04-16T21:27:04.588Z,7.45
2023-04-16T21:29:32.772Z,7.38
2023-04-16T21:32:00.328Z,8.13
2023-04-16T21:34:27.897Z,13.73
2023-04-16T21:36:55.495Z,14.60
2023-04-16T21:39:24.454Z,10.70
2023-04-16T21:41:51.972Z,12.10
2023-04-16T21:44:21.119Z,15.57
2023-04-16T21:46:48.679Z,9.68
2023-04-16T21:49:16.379Z,11.38
2023-04-16T21:51:46.055Z,11.80
2023-04-16T21:54:13.674Z,12.88
2023-04-16T21:56:41.180Z,10.93
2023-04-16T21:59:08.832Z,13.63
2023-04-16T22:01:36.671Z,14.30
2023-04-16T22:04:05.044Z,11.38
2023-04-16T22:06:32.627Z,13.13
2023-04-16T22:09:00.125Z,17.40
2023-04-16T22:11:27.748Z,15.10
2023-04-16T22:13:57.812Z,13.30
2023-04-16T22:16:25.808Z,21.80
2023-04-16T22:18:54.973Z,18.67
2023-04-16T22:21:22.657Z,15.35
2023-04-16T22:23:50.226Z,17.85
2023-04-16T22:26:17.784Z,14.10
2023-04-16T22:28:45.507Z,18.42
2023-04-16T22:31:13.093Z,20.35
2023-04-16T22:33:40.786Z,18.10
2023-04-16T22:36:08.601Z,17.98
2023-04-16T22:38:36.988Z,18.45
2023-04-16T22:41:04.762Z,16.20
2023-04-16T22:43:32.306Z,18.05
2023-04-16T22:46:07.032Z,20.48
2023-04-16T22:48:36.543Z,17.35
2023-04-16T22:51:05.621Z,18.88
2023-04-16T22:53:33.242Z,24.20
2023-04-16T22:56:00.839Z,17.92
2023-04-16T22:58:28.351Z,18.38
2023-04-16T23:00:59.413Z,21.10
2023-04-16T23:03:27.516Z,16.00
2023-04-16T23:05:55.132Z,17.17
2023-04-16T23:08:22.649Z,20.88
2023-04-16T23:10:50.431Z,14.43
2023-04-16T23:13:17.992Z,18.15
2023-04-16T23:15:47.325Z,17.58
2023-04-16T23:18:15.393Z,17.38
2023-04-16T23:20:43.064Z,20.00
2023-04-16T23:23:10.676Z,14.35
2023-04-16T23:25:40.630Z,20.10
2023-04-16T23:28:08.172Z,21.25
2023-04-16T23:30:35.791Z,23.23
2023-04-16T23:33:04.507Z,29.20
2023-04-16T23:35:32.058Z,21.60
2023-04-16T23:37:59.600Z,19.17
2023-04-16T23:40:27.130Z,29.05
2023-04-16T23:42:54.634Z,24.25
2023-04-16T23:45:22.193Z,21.17
2023-04-16T23:47:50.841Z,18.77
2023-04-16T23:50:18.374Z,20.67
2023-04-16T23:52:45.940Z,31.85
2023-04-16T23:55:15.438Z,22.23
2023-04-16T23:57:42.943Z,32.78
